Other Surface Observations
Issued by NWS Great Falls, MT

Home | Current Version | Previous Version | Text Only | Print | Product List | Glossary On
Versions: 1 2 3 4 5 6 7 8 9 10 11 12 13 14 15 16 17 18 19 20 21 22 23 24 25 26 27 28 29 30 31 32 33 34 35 36 37 38 39 40 41 42 43 44 45 46 47 48 49 50
585
SXUS55 KTFX 210229
OSOTFX
AREA AWOS OBSERVATIONS
NATIONAL WEATHER SERVICE GREAT FALLS MT
0729 PM MST FRI JAN 20 2017

METAR KPWD 210230Z AUTO 30007KT 8SM M01/M03 A2931 RMK PLENTYWOOD
METAR KPO1 210230Z AUTO 25006KT 10SM M01/M03 A2936 RMK POPLAR
METAR K1S3 210230Z AUTO 25003KT 10SM 02/02 A2940 RMK FORSYTH
METAR KS71 210230Z AUTO 00000KT 10SM M02/M04 A2937 RMK CHINOOK
METAR K79S 210230Z AUTO 10SM 01/M03 A2938 RMK FORT BENTON
METAR K38S 210230Z AUTO 23004KT 10SM M03/M08 A2934 RMK DEER LODGE
METAR K3U3 210230Z AUTO 17005KT 10SM M04/M09 A2932 RMK ANACONDA
METAR K6S5 210230Z AUTO 00000KT 10SM M04/M04 RMK HAMILTON
METAR K88M 210230Z AUTO 00000KT 10SM M02/M04 A2934 RMK EUREKA



USA.gov is the U.S. government's official web portal to all federal, state and local government web resources and services.